createdAt,value
2023-04-17T00:00:35.196Z,13.67
2023-04-17T00:03:02.451Z,16.50
2023-04-17T00:05:31.713Z,18.27
2023-04-17T00:07:59.934Z,16.73
2023-04-17T00:10:27.354Z,16.30
2023-04-17T00:12:54.516Z,18.80
2023-04-17T00:15:21.768Z,15.73
2023-04-17T00:17:48.440Z,17.47
2023-04-17T00:20:15.507Z,18.77
2023-04-17T00:22:42.610Z,16.90
2023-04-17T00:25:12.769Z,19.97
2023-04-17T00:27:39.923Z,18.20
2023-04-17T00:30:07.818Z,14.77
2023-04-17T00:32:34.980Z,16.10
2023-04-17T00:35:02.094Z,17.67
2023-04-17T00:37:29.154Z,16.97
2023-04-17T00:39:56.246Z,16.60
2023-04-17T00:42:23.425Z,17.23
2023-04-17T00:44:50.466Z,14.33
2023-04-17T00:47:17.760Z,15.90
2023-04-17T00:49:44.975Z,17.37
2023-04-17T00:52:12.424Z,15.10
2023-04-17T00:54:39.578Z,17.57
2023-04-17T00:57:06.623Z,20.63
2023-04-17T00:59:33.897Z,16.10
2023-04-17T01:02:01.153Z,17.80
2023-04-17T01:04:28.330Z,20.93
2023-04-17T01:06:55.677Z,19.53
2023-04-17T01:09:22.741Z,19.43
2023-04-17T01:11:50.057Z,18.87
2023-04-17T01:14:17.126Z,18.30
2023-04-17T01:16:44.543Z,21.93
2023-04-17T01:19:14.453Z,21.77
2023-04-17T01:21:42.058Z,17.00
2023-04-17T01:24:09.406Z,21.57
2023-04-17T01:26:36.640Z,18.97
2023-04-17T01:29:04.159Z,19.53
2023-04-17T01:31:31.954Z,20.53
2023-04-17T01:34:00.506Z,22.27
2023-04-17T01:36:28.451Z,21.60
2023-04-17T01:38:55.602Z,18.73
2023-04-17T01:41:22.727Z,19.70
2023-04-17T01:43:50.239Z,22.30
2023-04-17T01:46:17.351Z,19.07
2023-04-17T01:48:44.515Z,22.70
2023-04-17T01:51:11.568Z,22.97
2023-04-17T01:53:39.617Z,21.17
2023-04-17T01:56:06.848Z,20.60
2023-04-17T01:58:33.974Z,20.13
2023-04-17T02:01:01.107Z,22.07
2023-04-17T02:03:28.497Z,20.20
2023-04-17T02:05:55.906Z,19.30
2023-04-17T02:08:23.035Z,19.53
2023-04-17T02:10:50.257Z,21.20
2023-04-17T02:13:17.389Z,23.30
2023-04-17T02:15:44.511Z,20.13
2023-04-17T02:18:13.473Z,20.90
2023-04-17T02:20:40.604Z,22.43
2023-04-17T02:23:07.838Z,19.93
2023-04-17T02:25:34.953Z,18.00
2023-04-17T02:28:03.801Z,18.73
2023-04-17T02:30:31.163Z,19.07
2023-04-17T02:32:59.132Z,20.20
2023-04-17T02:35:27.935Z,21.17
2023-04-17T02:37:56.549Z,19.17
2023-04-17T02:40:24.023Z,20.77
2023-04-17T02:42:56.673Z,22.43
2023-04-17T02:45:23.743Z,18.53
2023-04-17T02:47:50.849Z,22.17
2023-04-17T02:50:18.575Z,18.10
2023-04-17T02:53:08.996Z,18.40
2023-04-17T02:55:36.547Z,21.57
2023-04-17T02:58:03.666Z,19.90
2023-04-17T03:00:30.778Z,17.93
2023-04-17T03:02:58.017Z,18.40
2023-04-17T03:05:25.792Z,20.23
2023-04-17T03:07:54.609Z,24.83
2023-04-17T03:10:21.852Z,17.73
2023-04-17T03:12:49.356Z,21.07
2023-04-17T03:15:16.527Z,18.17
2023-04-17T03:17:43.904Z,18.50
2023-04-17T03:20:11.157Z,19.03
2023-04-17T03:22:38.372Z,19.23
2023-04-17T03:25:07.037Z,16.57
2023-04-17T03:27:44.634Z,19.93
2023-04-17T03:30:13.144Z,22.70
2023-04-17T03:32:42.918Z,22.27
2023-04-17T03:35:10.066Z,21.07
2023-04-17T03:37:37.117Z,19.27
2023-04-17T03:40:06.071Z,22.93
2023-04-17T03:42:33.122Z,18.33
2023-04-17T03:45:00.179Z,21.23
2023-04-17T03:47:28.484Z,22.20
2023-04-17T03:49:56.409Z,25.87
2023-04-17T03:52:24.447Z,18.20
2023-04-17T03:54:55.548Z,20.50
2023-04-17T03:57:22.627Z,19.43
2023-04-17T03:59:49.927Z,18.93
2023-04-17T04:02:18.016Z,19.90
2023-04-17T04:04:48.135Z,22.27
2023-04-17T04:07:15.754Z,20.70
2023-04-17T04:09:42.895Z,20.07
2023-04-17T04:12:10.491Z,21.47
2023-04-17T04:14:42.062Z,24.07
2023-04-17T04:17:10.236Z,24.63
2023-04-17T04:19:38.410Z,24.60
2023-04-17T04:22:06.967Z,20.83
2023-04-17T04:24:41.473Z,22.23
2023-04-17T04:27:09.230Z,25.90
2023-04-17T04:29:39.225Z,20.87
2023-04-17T04:32:09.706Z,19.13
2023-04-17T04:34:41.849Z,20.93
2023-04-17T04:37:08.967Z,21.77
2023-04-17T04:39:39.498Z,21.87
2023-04-17T04:42:09.938Z,20.57
2023-04-17T04:44:49.636Z,20.67
2023-04-17T04:47:19.955Z,19.83
2023-04-17T04:49:48.616Z,24.40
2023-04-17T04:52:18.819Z,20.60
2023-04-17T04:54:46.381Z,23.53
2023-04-17T04:57:14.613Z,21.93
2023-04-17T04:59:43.924Z,20.30
2023-04-17T05:02:33.899Z,21.93
2023-04-17T05:05:02.192Z,22.57
2023-04-17T05:07:31.878Z,21.53
2023-04-17T05:09:59.639Z,20.60
2023-04-17T05:12:28.089Z,22.73
2023-04-17T05:14:55.233Z,24.90
2023-04-17T05:17:22.821Z,24.83
2023-04-17T05:19:50.267Z,21.63
2023-04-17T05:22:17.888Z,19.53
2023-04-17T05:24:59.426Z,22.47
2023-04-17T05:27:27.218Z,24.43
2023-04-17T05:29:55.033Z,20.77
2023-04-17T05:32:22.452Z,25.03
2023-04-17T05:34:54.420Z,22.67
2023-04-17T05:37:25.478Z,20.13
2023-04-17T05:39:52.751Z,25.77
2023-04-17T05:42:19.798Z,19.37
2023-04-17T05:44:47.247Z,23.00
2023-04-17T05:47:14.324Z,20.87
2023-04-17T05:49:42.373Z,21.37
2023-04-17T05:52:09.872Z,25.63
2023-04-17T05:54:41.956Z,23.03
2023-04-17T05:57:09.410Z,20.27
2023-04-17T05:59:37.063Z,21.33
2023-04-17T06:02:04.730Z,20.47
2023-04-17T06:04:34.065Z,20.87
2023-04-17T06:07:02.932Z,18.93
2023-04-17T06:09:29.917Z,18.50
2023-04-17T06:11:57.001Z,17.70
2023-04-17T06:14:24.082Z,20.53
2023-04-17T06:16:51.281Z,18.80
2023-04-17T06:19:18.377Z,21.97
2023-04-17T06:21:45.732Z,18.83
2023-04-17T06:24:12.876Z,18.47
2023-04-17T06:26:45.662Z,20.20
2023-04-17T06:29:13.877Z,17.13
2023-04-17T06:31:41.515Z,19.43
2023-04-17T06:34:08.712Z,19.53
2023-04-17T06:36:41.003Z,22.00
2023-04-17T06:39:08.086Z,25.60
2023-04-17T06:41:35.425Z,18.17
2023-04-17T06:44:02.038Z,20.10
2023-04-17T06:46:44.089Z,21.03
2023-04-17T06:49:11.936Z,16.93
2023-04-17T06:51:39.434Z,16.77
2023-04-17T06:54:06.525Z,18.60
2023-04-17T06:56:33.534Z,17.40
2023-04-17T06:59:02.440Z,19.17
2023-04-17T07:01:31.389Z,17.47
2023-04-17T07:03:58.557Z,19.93
2023-04-17T07:06:25.158Z,18.73
2023-04-17T07:08:53.535Z,20.77
2023-04-17T07:11:22.493Z,17.10
2023-04-17T07:13:49.932Z,17.43
2023-04-17T07:16:17.013Z,18.47
2023-04-17T07:18:44.131Z,19.10
2023-04-17T07:21:11.193Z,16.97
2023-04-17T07:23:37.772Z,17.97
2023-04-17T07:26:04.803Z,14.73
2023-04-17T07:28:31.850Z,15.90
2023-04-17T07:30:58.866Z,16.27
2023-04-17T07:33:26.106Z,19.50
2023-04-17T07:35:53.886Z,15.80
2023-04-17T07:38:21.045Z,14.60
2023-04-17T07:40:47.668Z,19.53
2023-04-17T07:43:15.262Z,19.50
2023-04-17T07:45:42.496Z,15.70
2023-04-17T07:48:09.815Z,14.60
2023-04-17T07:50:36.967Z,14.90
2023-04-17T07:53:03.975Z,16.73
2023-04-17T07:55:31.131Z,15.77
2023-04-17T07:57:58.743Z,16.10
2023-04-17T08:00:26.210Z,15.93
2023-04-17T08:02:53.511Z,13.23
2023-04-17T08:05:20.985Z,14.63
2023-04-17T08:07:47.688Z,14.47
2023-04-17T08:10:14.784Z,12.30
2023-04-17T08:12:41.875Z,13.47
2023-04-17T08:15:09.437Z,18.30
2023-04-17T08:17:36.662Z,11.90
2023-04-17T08:20:11.814Z,11.00
2023-04-17T08:22:42.657Z,16.17
2023-04-17T08:25:10.201Z,11.90
2023-04-17T08:27:38.223Z,12.57
2023-04-17T08:30:06.932Z,9.87
2023-04-17T08:32:45.366Z,9.40
2023-04-17T08:35:14.187Z,12.20
2023-04-17T08:37:47.944Z,9.60
2023-04-17T08:40:16.869Z,10.83
2023-04-17T08:42:44.353Z,12.27
2023-04-17T08:45:12.521Z,11.70
2023-04-17T08:47:40.347Z,10.03
2023-04-17T08:50:12.732Z,9.90
2023-04-17T08:52:47.527Z,8.27
2023-04-17T08:55:16.554Z,9.00
2023-04-17T08:57:58.886Z,9.73
2023-04-17T09:00:39.586Z,11.57
2023-04-17T09:03:09.024Z,8.70
2023-04-17T09:05:37.101Z,9.30
2023-04-17T09:08:12.850Z,7.57
2023-04-17T09:10:42.077Z,13.27
2023-04-17T09:13:09.742Z,7.50
2023-04-17T09:15:37.422Z,6.30
2023-04-17T09:18:04.565Z,10.63
2023-04-17T09:20:32.508Z,8.57
2023-04-17T09:23:01.883Z,7.70
2023-04-17T09:25:29.125Z,10.23
2023-04-17T09:28:09.781Z,10.33
2023-04-17T09:30:38.028Z,6.57
2023-04-17T09:33:06.392Z,7.07
2023-04-17T09:35:33.751Z,10.17
2023-04-17T09:38:00.887Z,8.03
2023-04-17T09:40:36.106Z,6.93
2023-04-17T09:43:06.081Z,7.03
2023-04-17T09:45:40.026Z,9.83
2023-04-17T09:48:15.155Z,7.53
2023-04-17T09:50:42.290Z,8.10
2023-04-17T09:53:09.448Z,11.00
2023-04-17T09:55:37.864Z,7.23
2023-04-17T09:58:07.205Z,10.33
2023-04-17T10:00:34.393Z,9.27
2023-04-17T10:03:01.739Z,7.70
2023-04-17T10:05:30.057Z,10.40
2023-04-17T10:07:57.378Z,9.87
2023-04-17T10:10:33.639Z,9.07
2023-04-17T10:13:03.295Z,7.80
2023-04-17T10:15:30.913Z,6.93
2023-04-17T10:18:24.456Z,7.80
2023-04-17T10:20:53.297Z,7.80
2023-04-17T10:23:34.466Z,5.33
2023-04-17T10:26:24.768Z,9.13
2023-04-17T10:28:57.745Z,12.07
2023-04-17T10:32:03.333Z,7.60
2023-04-17T10:34:37.608Z,8.00
2023-04-17T10:37:05.101Z,7.70
2023-04-17T10:40:01.058Z,9.67
2023-04-17T10:42:30.141Z,14.37
2023-04-17T10:45:05.805Z,5.87
2023-04-17T10:47:34.310Z,19.67
2023-04-17T10:50:03.872Z,10.27
2023-04-17T10:52:40.044Z,8.80
2023-04-17T10:55:09.398Z,7.90
2023-04-17T10:57:58.219Z,8.33
2023-04-17T11:00:37.005Z,9.23
2023-04-17T11:03:05.734Z,8.73
2023-04-17T11:05:34.193Z,9.07
2023-04-17T11:08:01.619Z,8.43
2023-04-17T11:10:28.734Z,10.30
2023-04-17T11:12:56.671Z,9.33
2023-04-17T11:15:32.170Z,10.53
2023-04-17T11:18:00.144Z,7.67
2023-04-17T11:20:31.920Z,8.83
2023-04-17T11:23:03.453Z,7.03
2023-04-17T11:25:31.639Z,6.40
2023-04-17T11:27:59.116Z,11.30
2023-04-17T11:30:34.658Z,8.20
2023-04-17T11:33:06.192Z,14.50
2023-04-17T11:35:35.050Z,11.97
2023-04-17T11:38:14.188Z,6.53
2023-04-17T11:40:46.024Z,8.33
2023-04-17T11:43:13.637Z,7.03
2023-04-17T11:45:43.096Z,10.13
2023-04-17T11:48:14.981Z,10.67
2023-04-17T11:50:43.701Z,8.83
2023-04-17T11:53:14.500Z,8.20
2023-04-17T11:55:41.596Z,12.63
2023-04-17T11:58:10.266Z,12.27
2023-04-17T12:00:38.352Z,8.80
2023-04-17T12:03:31.160Z,9.83
2023-04-17T12:06:03.824Z,9.23
2023-04-17T12:08:31.478Z,9.40
2023-04-17T12:10:58.767Z,7.83
2023-04-17T12:13:26.245Z,10.33
2023-04-17T12:15:53.704Z,6.43
2023-04-17T12:18:20.808Z,8.93
2023-04-17T12:20:48.653Z,9.07
2023-04-17T12:23:16.462Z,7.27
2023-04-17T12:25:43.558Z,6.73
2023-04-17T12:28:10.195Z,7.63
2023-04-17T12:30:39.725Z,7.27
2023-04-17T12:33:07.127Z,6.70
2023-04-17T12:35:34.297Z,7.00
2023-04-17T12:38:00.923Z,7.60
2023-04-17T12:40:28.044Z,11.50
2023-04-17T12:42:55.651Z,10.20
2023-04-17T12:45:22.874Z,8.30
2023-04-17T12:47:50.124Z,12.23
2023-04-17T12:50:16.937Z,6.90
2023-04-17T12:52:44.059Z,9.23
2023-04-17T12:55:11.119Z,9.57
2023-04-17T12:57:38.256Z,8.17
2023-04-17T13:00:07.026Z,8.67
2023-04-17T13:02:34.298Z,8.50
2023-04-17T13:05:01.378Z,11.10
2023-04-17T13:07:29.014Z,8.60
2023-04-17T13:09:56.398Z,11.07
2023-04-17T13:12:23.564Z,8.10
2023-04-17T13:14:50.732Z,8.27
2023-04-17T13:17:17.890Z,7.47
2023-04-17T13:19:45.285Z,8.37
2023-04-17T13:22:12.378Z,6.93
2023-04-17T13:24:40.168Z,10.87
2023-04-17T13:27:07.259Z,10.33
2023-04-17T13:29:34.327Z,10.80
2023-04-17T13:32:01.867Z,9.77
2023-04-17T13:34:29.096Z,10.40
2023-04-17T13:36:56.641Z,12.03
2023-04-17T13:39:23.739Z,8.37
2023-04-17T13:41:50.835Z,10.53
2023-04-17T13:44:18.619Z,8.20
2023-04-17T13:46:46.056Z,10.90
2023-04-17T13:49:13.422Z,7.20
2023-04-17T13:51:40.615Z,9.07
2023-04-17T13:54:08.880Z,7.80
2023-04-17T13:56:36.061Z,9.57
2023-04-17T13:59:03.710Z,8.27
2023-04-17T14:01:30.831Z,6.77
2023-04-17T14:04:00.548Z,9.57
2023-04-17T14:06:32.430Z,7.37
2023-04-17T14:08:59.617Z,10.87
2023-04-17T14:11:26.794Z,6.00
2023-04-17T14:13:53.980Z,8.03
2023-04-17T14:16:21.196Z,9.63
2023-04-17T14:18:51.965Z,10.50
2023-04-17T14:21:18.758Z,7.63
2023-04-17T14:23:46.030Z,7.40
2023-04-17T14:26:13.255Z,10.37
2023-04-17T14:28:40.591Z,6.97
2023-04-17T14:31:07.979Z,10.03
2023-04-17T14:33:35.068Z,8.77
2023-04-17T14:36:02.610Z,10.27
2023-04-17T14:38:30.649Z,11.97
2023-04-17T14:40:57.683Z,10.23
2023-04-17T14:43:24.769Z,8.77
2023-04-17T14:45:51.572Z,8.17
2023-04-17T14:48:20.749Z,11.13
2023-04-17T14:50:47.971Z,10.90
2023-04-17T14:53:15.143Z,9.33
2023-04-17T14:55:42.654Z,10.87
2023-04-17T14:58:09.793Z,11.33
2023-04-17T15:00:38.218Z,10.60
2023-04-17T15:03:05.589Z,9.53
2023-04-17T15:05:32.680Z,9.53
2023-04-17T15:07:59.739Z,10.67
2023-04-17T15:10:28.655Z,11.40
2023-04-17T15:13:00.145Z,9.23
2023-04-17T15:15:28.507Z,6.90
2023-04-17T15:17:55.769Z,13.00
2023-04-17T15:20:25.078Z,15.10
2023-04-17T15:22:55.356Z,9.97
2023-04-17T15:25:23.576Z,8.53
2023-04-17T15:27:50.889Z,9.37
2023-04-17T15:30:17.976Z,9.27
2023-04-17T15:32:45.123Z,7.83
2023-04-17T15:35:12.250Z,8.07
2023-04-17T15:37:39.500Z,11.60
2023-04-17T15:40:07.778Z,7.43
2023-04-17T15:42:36.635Z,9.50
2023-04-17T15:45:03.854Z,10.50
2023-04-17T15:47:30.950Z,8.00
2023-04-17T15:49:58.055Z,14.93
2023-04-17T15:52:25.258Z,8.43
2023-04-17T15:54:52.416Z,13.33
2023-04-17T15:57:19.676Z,11.13
2023-04-17T15:59:46.325Z,9.40
2023-04-17T16:02:13.845Z,8.40
2023-04-17T16:04:42.988Z,11.90
2023-04-17T16:07:11.866Z,7.97
2023-04-17T16:09:39.695Z,7.67
2023-04-17T16:12:10.230Z,10.20
2023-04-17T16:14:37.717Z,8.00
2023-04-17T16:17:04.951Z,9.67
2023-04-17T16:19:32.182Z,10.10
2023-04-17T16:21:59.579Z,7.20
2023-04-17T16:24:26.890Z,12.40
2023-04-17T16:26:55.379Z,10.43
2023-04-17T16:29:22.460Z,7.93
2023-04-17T16:31:49.157Z,8.87
2023-04-17T16:34:16.288Z,7.77
2023-04-17T16:36:45.401Z,11.50
2023-04-17T16:39:12.995Z,7.77
2023-04-17T16:41:40.243Z,9.87
2023-04-17T16:44:07.373Z,7.70
2023-04-17T16:46:52.226Z,6.87
2023-04-17T16:49:21.068Z,9.77
2023-04-17T16:51:48.199Z,8.17
2023-04-17T16:54:15.408Z,10.47
2023-04-17T16:56:42.970Z,9.47
2023-04-17T16:59:10.134Z,8.97
2023-04-17T17:01:37.279Z,8.30
2023-04-17T17:04:04.555Z,9.00
2023-04-17T17:06:31.647Z,9.23
2023-04-17T17:08:59.615Z,9.63
2023-04-17T17:11:26.688Z,8.90
2023-04-17T17:13:53.787Z,9.83
2023-04-17T17:16:23.665Z,8.33
2023-04-17T17:18:51.025Z,8.67
2023-04-17T17:21:18.200Z,9.87
2023-04-17T17:23:45.240Z,8.07
2023-04-17T17:26:12.296Z,7.23
2023-04-17T17:28:39.442Z,7.40
2023-04-17T17:31:07.879Z,8.57
2023-04-17T17:33:35.928Z,9.80
2023-04-17T17:36:03.119Z,10.47
2023-04-17T17:38:32.351Z,8.43
2023-04-17T17:40:59.653Z,7.93
2023-04-17T17:43:28.076Z,9.73
2023-04-17T17:45:55.224Z,12.20
2023-04-17T17:48:22.393Z,7.47
2023-04-17T17:50:53.619Z,9.80
2023-04-17T17:53:23.511Z,8.53
2023-04-17T17:55:54.611Z,8.20
2023-04-17T17:58:21.795Z,8.90
2023-04-17T18:00:51.489Z,6.67
2023-04-17T18:03:18.983Z,6.63
2023-04-17T18:05:46.759Z,8.73
2023-04-17T18:08:14.087Z,9.97
2023-04-17T18:10:41.118Z,8.20
2023-04-17T18:13:08.219Z,7.53
2023-04-17T18:15:36.104Z,8.93
2023-04-17T18:18:03.275Z,6.33
2023-04-17T18:20:30.348Z,8.20
2023-04-17T18:22:57.533Z,10.77
2023-04-17T18:25:24.614Z,8.23
2023-04-17T18:27:51.679Z,8.23
2023-04-17T18:30:18.740Z,8.87
2023-04-17T18:32:46.131Z,6.17
2023-04-17T18:35:13.192Z,6.43
2023-04-17T18:37:43.137Z,9.23
2023-04-17T18:40:10.449Z,7.57
2023-04-17T18:42:37.550Z,8.17
2023-04-17T18:45:05.040Z,12.03
2023-04-17T18:47:32.272Z,9.43
2023-04-17T18:49:59.471Z,9.77
2023-04-17T18:52:26.847Z,8.20
2023-04-17T18:54:54.074Z,6.83
2023-04-17T18:57:21.605Z,11.30
2023-04-17T18:59:48.982Z,7.17
2023-04-17T19:02:16.043Z,9.50
2023-04-17T19:04:43.253Z,7.60
2023-04-17T19:07:09.881Z,8.00
2023-04-17T19:09:36.540Z,10.27
2023-04-17T19:12:03.761Z,13.30
2023-04-17T19:14:32.585Z,7.90
2023-04-17T19:16:59.712Z,8.27
2023-04-17T19:19:26.718Z,9.60
2023-04-17T19:21:53.743Z,8.87
2023-04-17T19:24:20.855Z,9.47
2023-04-17T19:26:47.883Z,8.20
2023-04-17T19:29:17.054Z,12.03
2023-04-17T19:31:44.436Z,6.70
2023-04-17T19:34:11.565Z,6.33
2023-04-17T19:36:38.684Z,6.87
2023-04-17T19:39:05.727Z,8.97
2023-04-17T19:41:32.791Z,4.93
2023-04-17T19:43:59.839Z,7.20
2023-04-17T19:46:28.585Z,5.87
2023-04-17T19:48:55.442Z,9.23
2023-04-17T19:51:22.566Z,5.90
2023-04-17T19:53:49.681Z,7.53
2023-04-17T19:56:16.734Z,5.73
2023-04-17T19:58:43.852Z,9.20
2023-04-17T20:01:11.090Z,5.33
2023-04-17T20:03:39.308Z,7.07
2023-04-17T20:06:07.244Z,7.00
2023-04-17T20:08:34.526Z,7.77
2023-04-17T20:11:01.584Z,5.27
2023-04-17T20:13:28.577Z,5.60
2023-04-17T20:15:55.835Z,10.03
2023-04-17T20:18:22.955Z,4.60
2023-04-17T20:20:50.071Z,7.67
2023-04-17T20:23:17.160Z,6.23
2023-04-17T20:25:44.236Z,6.60
2023-04-17T20:28:11.377Z,8.30
2023-04-17T20:30:38.437Z,7.20
2023-04-17T20:33:05.641Z,6.83
2023-04-17T20:35:32.840Z,8.70
2023-04-17T20:37:59.913Z,8.87
2023-04-17T20:40:26.960Z,9.23
2023-04-17T20:42:54.021Z,7.33
2023-04-17T20:45:21.209Z,7.37
2023-04-17T20:50:19.447Z,9.03
2023-04-17T20:52:46.514Z,8.40
2023-04-17T20:55:13.541Z,9.70
2023-04-17T20:57:40.858Z,7.30
2023-04-17T21:00:08.216Z,10.33
2023-04-17T21:02:35.431Z,8.03
2023-04-17T21:05:02.572Z,7.80
2023-04-17T21:07:30.496Z,8.00
2023-04-17T21:09:57.560Z,9.73
2023-04-17T21:12:24.644Z,9.83
2023-04-17T21:14:51.698Z,8.63
2023-04-17T21:17:18.765Z,9.70
2023-04-17T21:19:46.094Z,9.50
2023-04-17T21:22:13.240Z,8.03
2023-04-17T21:24:40.350Z,7.97
2023-04-17T21:27:07.412Z,8.00
2023-04-17T21:29:34.652Z,8.10
2023-04-17T21:32:01.935Z,7.27
2023-04-17T21:34:29.134Z,6.80
2023-04-17T21:36:56.149Z,8.63
2023-04-17T21:39:23.206Z,7.10
2023-04-17T21:41:49.890Z,6.03
2023-04-17T21:44:16.969Z,8.00
2023-04-17T21:46:45.123Z,6.87
2023-04-17T21:49:12.438Z,6.70
2023-04-17T21:51:39.566Z,8.43
2023-04-17T21:54:06.612Z,6.37
2023-04-17T21:56:33.263Z,9.70
2023-04-17T21:59:00.947Z,7.93
2023-04-17T22:01:28.365Z,9.70
2023-04-17T22:03:55.164Z,6.60
2023-04-17T22:06:22.495Z,6.97
2023-04-17T22:08:49.573Z,5.83
2023-04-17T22:11:16.661Z,6.20
2023-04-17T22:13:44.893Z,9.67
2023-04-17T22:16:12.058Z,6.90
2023-04-17T22:18:39.160Z,8.33
2023-04-17T22:21:06.366Z,5.17
2023-04-17T22:23:33.421Z,5.50
2023-04-17T22:26:00.743Z,7.57
2023-04-17T22:28:31.237Z,5.27
2023-04-17T22:30:58.761Z,4.80
2023-04-17T22:33:26.089Z,4.40
2023-04-17T22:35:53.207Z,5.10
2023-04-17T22:38:23.244Z,5.33
2023-04-17T22:40:50.290Z,4.73
2023-04-17T22:43:17.355Z,4.10
2023-04-17T22:45:43.953Z,4.00
2023-04-17T22:48:11.103Z,4.30
2023-04-17T22:50:38.379Z,4.37
2023-04-17T22:53:05.748Z,10.67
2023-04-17T22:55:33.232Z,4.13
2023-04-17T22:58:01.519Z,5.20
2023-04-17T23:00:28.582Z,4.33
2023-04-17T23:02:55.815Z,4.57
2023-04-17T23:05:22.496Z,4.03
2023-04-17T23:07:49.724Z,5.60
2023-04-17T23:10:16.459Z,4.03
2023-04-17T23:12:43.068Z,4.73
2023-04-17T23:15:10.499Z,4.83
2023-04-17T23:17:37.588Z,5.77
2023-04-17T23:20:04.896Z,4.30
2023-04-17T23:22:31.974Z,4.17
2023-04-17T23:24:59.084Z,5.90
2023-04-17T23:27:26.378Z,3.33
2023-04-17T23:29:53.424Z,4.83
2023-04-17T23:32:20.512Z,3.30
2023-04-17T23:34:47.615Z,3.40
2023-04-17T23:37:14.936Z,9.30
2023-04-17T23:39:42.655Z,4.57
2023-04-17T23:42:09.988Z,3.27
2023-04-17T23:44:37.068Z,3.60
2023-04-17T23:47:04.594Z,3.50
2023-04-17T23:49:31.734Z,5.83
2023-04-17T23:51:58.774Z,3.93
2023-04-17T23:54:25.378Z,5.13
2023-04-17T23:56:52.438Z,3.93
2023-04-17T23:59:19.557Z,3.83
